Nederlandse vliegveldverwachtingen (TAF)

Luchtvaartmeteorologische informatie voor operationeel gebruik en vluchtvoorbereiding is beschikbaar op www.luchtvaartmeteo.nl.

ZCZC
FT182300 EHAM     AMSTERDAM/SCHIPHOL   NLD   -3 m.
TAF EHAM 182258Z 1900/2006 07011KT CAVOK=

ZCZC
FT182300 EHBK     MAASTRICHT/MAASTRICHT-AACHEN   NLD   114 m.
TAF EHBK 182316Z 1900/2006 07008KT CAVOK=

ZCZC
FT182300 EHGG     GRONINGEN/EELDE   NLD   5 m.
TAF EHGG 182316Z 1900/2006 07009KT CAVOK=

ZCZC
FT182300 EHLE     LELYSTAD/LELYSTAD   NLD   -3 m.
TAF EHLE 182259Z 1900/2006 07010KT CAVOK=

ZCZC
FT182300 EHRD     ROTTERDAM/THE HAGUE AIRPORT   NLD   -5 m.
TAF EHRD 182259Z 1900/2006 07009KT CAVOK=

ZCZC
FT182300 EHEH     EINDHOVEN/EINDHOVEN   NLD   22 m.
TAF EHEH 182352Z 1900/2006 07006KT CAVOK=

ZCZC
FC190100 EHGR     GILZE-RIJEN/GILZE-RIJEN   NLD   14 m.
TAF EHGR 190100Z NIL=

ZCZC
FC190100 EHKD     DE KOOY/DE KOOY   NLD   1 m.
TAF EHKD 190044Z 1901/1913 08014KT CAVOK=

ZCZC
FC190100 EHLW     LEEUWARDEN/LEEUWARDEN   NLD   1 m.
TAF EHLW 190046Z 1901/1913 07010KT CAVOK=

ZCZC
FC190100 EHVK     VOLKEL/VOLKEL   NLD   21 m.
TAF EHVK 190047Z 1901/1913 07008KT CAVOK=

ZCZC
FC190100 EHWO     WOENSDRECHT/WOENSDRECHT   NLD   19 m.
TAF EHWO 190100Z NIL=

19/09/2020 03.15 uur LT